sensor_id;sensor_type;location;lat;lon;timestamp;P1;durP1;ratioP1;P2;durP2;ratioP2
21771;SDS011;11047;47.904;8.110;2022-12-18T00:00:40;7.50;;;3.80;;
21771;SDS011;11047;47.904;8.110;2022-12-18T00:03:07;8.65;;;4.10;;
21771;SDS011;11047;47.904;8.110;2022-12-18T00:05:34;6.63;;;4.00;;
21771;SDS011;11047;47.904;8.110;2022-12-18T00:08:01;7.97;;;5.15;;
21771;SDS011;11047;47.904;8.110;2022-12-18T00:10:28;6.10;;;4.20;;
21771;SDS011;11047;47.904;8.110;2022-12-18T00:12:57;9.55;;;5.00;;
21771;SDS011;11047;47.904;8.110;2022-12-18T00:15:24;8.65;;;4.93;;
21771;SDS011;11047;47.904;8.110;2022-12-18T00:17:50;10.13;;;5.43;;
21771;SDS011;11047;47.904;8.110;2022-12-18T00:20:17;9.43;;;5.05;;
21771;SDS011;11047;47.904;8.110;2022-12-18T00:22:50;8.48;;;5.00;;
21771;SDS011;11047;47.904;8.110;2022-12-18T00:25:17;8.95;;;5.47;;
21771;SDS011;11047;47.904;8.110;2022-12-18T00:27:44;9.82;;;4.82;;
21771;SDS011;11047;47.904;8.110;2022-12-18T00:30:12;6.82;;;4.47;;
21771;SDS011;11047;47.904;8.110;2022-12-18T00:32:39;10.45;;;5.20;;
21771;SDS011;11047;47.904;8.110;2022-12-18T00:35:06;7.18;;;4.47;;
21771;SDS011;11047;47.904;8.110;2022-12-18T00:37:34;7.78;;;4.78;;
21771;SDS011;11047;47.904;8.110;2022-12-18T00:40:01;8.68;;;5.15;;
21771;SDS011;11047;47.904;8.110;2022-12-18T00:42:28;8.07;;;5.43;;
21771;SDS011;11047;47.904;8.110;2022-12-18T00:45:14;10.82;;;5.38;;
21771;SDS011;11047;47.904;8.110;2022-12-18T00:47:41;8.45;;;4.63;;
21771;SDS011;11047;47.904;8.110;2022-12-18T00:50:08;9.70;;;5.32;;
21771;SDS011;11047;47.904;8.110;2022-12-18T00:52:35;9.57;;;5.32;;
21771;SDS011;11047;47.904;8.110;2022-12-18T00:55:02;9.18;;;5.00;;
21771;SDS011;11047;47.904;8.110;2022-12-18T00:57:30;7.35;;;4.82;;
21771;SDS011;11047;47.904;8.110;2022-12-18T00:59:57;6.80;;;4.72;;
21771;SDS011;11047;47.904;8.110;2022-12-18T01:02:25;8.55;;;5.47;;
21771;SDS011;11047;47.904;8.110;2022-12-18T01:04:52;7.68;;;4.97;;
21771;SDS011;11047;47.904;8.110;2022-12-18T01:07:19;10.15;;;5.53;;
21771;SDS011;11047;47.904;8.110;2022-12-18T01:09:46;8.18;;;4.68;;
21771;SDS011;11047;47.904;8.110;2022-12-18T01:12:13;7.00;;;4.80;;
21771;SDS011;11047;47.904;8.110;2022-12-18T01:14:40;11.93;;;4.70;;
21771;SDS011;11047;47.904;8.110;2022-12-18T01:17:07;10.20;;;4.95;;
21771;SDS011;11047;47.904;8.110;2022-12-18T01:19:35;9.38;;;4.80;;
21771;SDS011;11047;47.904;8.110;2022-12-18T01:22:02;11.25;;;5.88;;
21771;SDS011;11047;47.904;8.110;2022-12-18T01:24:29;9.05;;;5.13;;
21771;SDS011;11047;47.904;8.110;2022-12-18T01:26:56;9.60;;;5.25;;
21771;SDS011;11047;47.904;8.110;2022-12-18T01:29:23;8.73;;;5.32;;
21771;SDS011;11047;47.904;8.110;2022-12-18T01:31:50;11.73;;;5.28;;
21771;SDS011;11047;47.904;8.110;2022-12-18T01:34:16;9.43;;;5.85;;
21771;SDS011;11047;47.904;8.110;2022-12-18T01:36:45;11.43;;;6.68;;
21771;SDS011;11047;47.904;8.110;2022-12-18T01:39:12;8.73;;;5.35;;
21771;SDS011;11047;47.904;8.110;2022-12-18T01:41:40;11.23;;;5.63;;
21771;SDS011;11047;47.904;8.110;2022-12-18T01:47:33;10.65;;;6.25;;
21771;SDS011;11047;47.904;8.110;2022-12-18T01:50:05;13.23;;;6.63;;
21771;SDS011;11047;47.904;8.110;2022-12-18T01:52:35;10.70;;;6.50;;
21771;SDS011;11047;47.904;8.110;2022-12-18T01:55:06;13.45;;;6.93;;
21771;SDS011;11047;47.904;8.110;2022-12-18T01:57:35;14.60;;;7.25;;
21771;SDS011;11047;47.904;8.110;2022-12-18T02:00:04;11.75;;;7.53;;
21771;SDS011;11047;47.904;8.110;2022-12-18T02:02:33;11.80;;;6.57;;
21771;SDS011;11047;47.904;8.110;2022-12-18T02:05:00;14.23;;;7.20;;
21771;SDS011;11047;47.904;8.110;2022-12-18T02:07:31;11.90;;;7.00;;
21771;SDS011;11047;47.904;8.110;2022-12-18T02:10:06;12.48;;;6.30;;
21771;SDS011;11047;47.904;8.110;2022-12-18T02:12:39;13.30;;;6.07;;
21771;SDS011;11047;47.904;8.110;2022-12-18T02:15:13;9.40;;;5.65;;
21771;SDS011;11047;47.904;8.110;2022-12-18T02:17:43;8.48;;;5.25;;
21771;SDS011;11047;47.904;8.110;2022-12-18T02:20:15;11.43;;;5.53;;
21771;SDS011;11047;47.904;8.110;2022-12-18T02:22:52;10.82;;;5.90;;
21771;SDS011;11047;47.904;8.110;2022-12-18T02:25:32;10.13;;;6.15;;
21771;SDS011;11047;47.904;8.110;2022-12-18T02:28:14;11.07;;;6.10;;
21771;SDS011;11047;47.904;8.110;2022-12-18T02:30:42;10.95;;;6.15;;
21771;SDS011;11047;47.904;8.110;2022-12-18T02:33:12;12.10;;;6.05;;
21771;SDS011;11047;47.904;8.110;2022-12-18T02:35:40;10.65;;;6.05;;
21771;SDS011;11047;47.904;8.110;2022-12-18T02:38:08;13.25;;;6.15;;
21771;SDS011;11047;47.904;8.110;2022-12-18T02:40:37;12.23;;;6.40;;
21771;SDS011;11047;47.904;8.110;2022-12-18T02:43:07;13.45;;;6.78;;
21771;SDS011;11047;47.904;8.110;2022-12-18T02:45:36;11.10;;;6.20;;
21771;SDS011;11047;47.904;8.110;2022-12-18T02:48:12;11.57;;;6.32;;
21771;SDS011;11047;47.904;8.110;2022-12-18T02:50:41;13.25;;;5.75;;
21771;SDS011;11047;47.904;8.110;2022-12-18T02:53:19;8.88;;;5.40;;
21771;SDS011;11047;47.904;8.110;2022-12-18T02:55:55;9.32;;;5.90;;
21771;SDS011;11047;47.904;8.110;2022-12-18T02:58:40;8.73;;;5.15;;
21771;SDS011;11047;47.904;8.110;2022-12-18T03:01:19;9.85;;;5.72;;
21771;SDS011;11047;47.904;8.110;2022-12-18T03:03:52;11.45;;;6.22;;
21771;SDS011;11047;47.904;8.110;2022-12-18T03:06:24;11.52;;;6.53;;
21771;SDS011;11047;47.904;8.110;2022-12-18T03:08:56;11.68;;;6.05;;
21771;SDS011;11047;47.904;8.110;2022-12-18T03:11:26;16.73;;;7.57;;
21771;SDS011;11047;47.904;8.110;2022-12-18T03:14:12;15.10;;;7.47;;
21771;SDS011;11047;47.904;8.110;2022-12-18T03:16:43;13.13;;;6.78;;
21771;SDS011;11047;47.904;8.110;2022-12-18T03:19:13;16.48;;;8.55;;
21771;SDS011;11047;47.904;8.110;2022-12-18T03:21:45;17.58;;;8.40;;
21771;SDS011;11047;47.904;8.110;2022-12-18T03:24:13;16.08;;;7.55;;
21771;SDS011;11047;47.904;8.110;2022-12-18T03:26:43;17.05;;;8.52;;
21771;SDS011;11047;47.904;8.110;2022-12-18T03:29:14;18.13;;;9.20;;
21771;SDS011;11047;47.904;8.110;2022-12-18T03:31:47;18.13;;;8.93;;
21771;SDS011;11047;47.904;8.110;2022-12-18T03:34:20;19.25;;;9.10;;
21771;SDS011;11047;47.904;8.110;2022-12-18T03:36:49;16.85;;;8.90;;
21771;SDS011;11047;47.904;8.110;2022-12-18T03:39:16;17.10;;;8.50;;
21771;SDS011;11047;47.904;8.110;2022-12-18T03:41:43;18.17;;;9.48;;
21771;SDS011;11047;47.904;8.110;2022-12-18T03:44:19;22.55;;;11.02;;
21771;SDS011;11047;47.904;8.110;2022-12-18T03:46:53;20.67;;;9.75;;
21771;SDS011;11047;47.904;8.110;2022-12-18T03:51:54;24.48;;;10.95;;
21771;SDS011;11047;47.904;8.110;2022-12-18T03:54:26;21.92;;;10.20;;
21771;SDS011;11047;47.904;8.110;2022-12-18T03:56:54;22.85;;;10.98;;
21771;SDS011;11047;47.904;8.110;2022-12-18T03:59:26;23.10;;;11.23;;
21771;SDS011;11047;47.904;8.110;2022-12-18T04:01:56;22.15;;;10.50;;
21771;SDS011;11047;47.904;8.110;2022-12-18T04:04:25;25.00;;;10.93;;
21771;SDS011;11047;47.904;8.110;2022-12-18T04:06:53;23.55;;;10.20;;
21771;SDS011;11047;47.904;8.110;2022-12-18T04:09:20;19.45;;;9.88;;
21771;SDS011;11047;47.904;8.110;2022-12-18T04:11:48;20.98;;;9.80;;
21771;SDS011;11047;47.904;8.110;2022-12-18T04:14:14;18.83;;;9.50;;
21771;SDS011;11047;47.904;8.110;2022-12-18T04:16:41;20.30;;;10.57;;
21771;SDS011;11047;47.904;8.110;2022-12-18T04:19:10;19.25;;;10.48;;
21771;SDS011;11047;47.904;8.110;2022-12-18T04:21:37;19.80;;;9.73;;
21771;SDS011;11047;47.904;8.110;2022-12-18T04:24:04;18.25;;;9.75;;
21771;SDS011;11047;47.904;8.110;2022-12-18T04:26:31;18.73;;;10.15;;
21771;SDS011;11047;47.904;8.110;2022-12-18T04:28:58;20.33;;;8.95;;
21771;SDS011;11047;47.904;8.110;2022-12-18T04:31:25;19.35;;;9.73;;
21771;SDS011;11047;47.904;8.110;2022-12-18T04:33:52;19.13;;;10.25;;
21771;SDS011;11047;47.904;8.110;2022-12-18T04:36:20;20.70;;;10.82;;
21771;SDS011;11047;47.904;8.110;2022-12-18T04:38:47;21.55;;;10.70;;
21771;SDS011;11047;47.904;8.110;2022-12-18T04:41:28;20.30;;;10.70;;
21771;SDS011;11047;47.904;8.110;2022-12-18T04:43:55;21.75;;;10.55;;
21771;SDS011;11047;47.904;8.110;2022-12-18T04:46:22;19.42;;;10.07;;
21771;SDS011;11047;47.904;8.110;2022-12-18T04:48:49;18.92;;;10.38;;
21771;SDS011;11047;47.904;8.110;2022-12-18T04:51:16;20.30;;;10.90;;
21771;SDS011;11047;47.904;8.110;2022-12-18T04:53:44;22.75;;;10.38;;
21771;SDS011;11047;47.904;8.110;2022-12-18T04:56:12;26.70;;;12.50;;
21771;SDS011;11047;47.904;8.110;2022-12-18T04:58:41;28.92;;;11.73;;
21771;SDS011;11047;47.904;8.110;2022-12-18T05:01:12;22.67;;;10.95;;
21771;SDS011;11047;47.904;8.110;2022-12-18T05:03:40;24.73;;;11.00;;
21771;SDS011;11047;47.904;8.110;2022-12-18T05:06:07;20.25;;;9.40;;
21771;SDS011;11047;47.904;8.110;2022-12-18T05:08:34;22.75;;;11.23;;
21771;SDS011;11047;47.904;8.110;2022-12-18T05:11:04;24.70;;;11.65;;
21771;SDS011;11047;47.904;8.110;2022-12-18T05:13:32;25.25;;;11.23;;
21771;SDS011;11047;47.904;8.110;2022-12-18T05:15:59;26.58;;;11.80;;
21771;SDS011;11047;47.904;8.110;2022-12-18T05:18:26;26.55;;;11.52;;
21771;SDS011;11047;47.904;8.110;2022-12-18T05:20:53;25.58;;;12.63;;
21771;SDS011;11047;47.904;8.110;2022-12-18T05:23:21;25.73;;;11.10;;
21771;SDS011;11047;47.904;8.110;2022-12-18T05:25:50;30.17;;;12.35;;
21771;SDS011;11047;47.904;8.110;2022-12-18T05:28:19;23.52;;;11.07;;
21771;SDS011;11047;47.904;8.110;2022-12-18T05:30:49;24.83;;;11.15;;
21771;SDS011;11047;47.904;8.110;2022-12-18T05:33:18;24.48;;;11.45;;
21771;SDS011;11047;47.904;8.110;2022-12-18T05:35:49;26.27;;;12.63;;
21771;SDS011;11047;47.904;8.110;2022-12-18T05:38:16;25.10;;;11.23;;
21771;SDS011;11047;47.904;8.110;2022-12-18T05:40:43;29.08;;;12.30;;
21771;SDS011;11047;47.904;8.110;2022-12-18T05:43:11;24.52;;;11.68;;
21771;SDS011;11047;47.904;8.110;2022-12-18T05:45:39;18.15;;;9.73;;
21771;SDS011;11047;47.904;8.110;2022-12-18T05:48:07;19.45;;;9.05;;
21771;SDS011;11047;47.904;8.110;2022-12-18T05:50:34;17.75;;;9.00;;
21771;SDS011;11047;47.904;8.110;2022-12-18T05:53:02;17.08;;;8.45;;
21771;SDS011;11047;47.904;8.110;2022-12-18T05:55:29;19.08;;;9.05;;
21771;SDS011;11047;47.904;8.110;2022-12-18T05:57:58;18.55;;;9.70;;
21771;SDS011;11047;47.904;8.110;2022-12-18T06:00:25;20.38;;;9.85;;
21771;SDS011;11047;47.904;8.110;2022-12-18T06:02:54;21.30;;;11.23;;
21771;SDS011;11047;47.904;8.110;2022-12-18T06:05:21;22.25;;;11.27;;
21771;SDS011;11047;47.904;8.110;2022-12-18T06:07:47;23.63;;;10.93;;
21771;SDS011;11047;47.904;8.110;2022-12-18T06:10:14;24.23;;;12.63;;
21771;SDS011;11047;47.904;8.110;2022-12-18T06:12:41;20.50;;;10.40;;
21771;SDS011;11047;47.904;8.110;2022-12-18T06:15:08;20.15;;;10.75;;
21771;SDS011;11047;47.904;8.110;2022-12-18T06:17:36;23.23;;;11.10;;
21771;SDS011;11047;47.904;8.110;2022-12-18T06:20:05;23.67;;;11.93;;
21771;SDS011;11047;47.904;8.110;2022-12-18T06:22:32;25.27;;;11.57;;
21771;SDS011;11047;47.904;8.110;2022-12-18T06:24:59;23.70;;;11.32;;
21771;SDS011;11047;47.904;8.110;2022-12-18T06:27:26;27.55;;;13.07;;
21771;SDS011;11047;47.904;8.110;2022-12-18T06:29:53;21.80;;;10.75;;
21771;SDS011;11047;47.904;8.110;2022-12-18T06:32:20;26.15;;;11.40;;
21771;SDS011;11047;47.904;8.110;2022-12-18T06:34:47;19.52;;;10.27;;
21771;SDS011;11047;47.904;8.110;2022-12-18T06:37:15;21.83;;;10.93;;
21771;SDS011;11047;47.904;8.110;2022-12-18T06:39:42;24.30;;;11.75;;
21771;SDS011;11047;47.904;8.110;2022-12-18T06:42:09;23.08;;;11.60;;
21771;SDS011;11047;47.904;8.110;2022-12-18T06:44:36;23.45;;;11.07;;
21771;SDS011;11047;47.904;8.110;2022-12-18T06:47:03;23.95;;;11.63;;
21771;SDS011;11047;47.904;8.110;2022-12-18T06:49:30;23.50;;;11.68;;
21771;SDS011;11047;47.904;8.110;2022-12-18T06:51:57;21.08;;;10.80;;
21771;SDS011;11047;47.904;8.110;2022-12-18T06:54:25;24.77;;;11.45;;
21771;SDS011;11047;47.904;8.110;2022-12-18T06:56:52;22.92;;;10.18;;
21771;SDS011;11047;47.904;8.110;2022-12-18T06:59:19;25.92;;;10.90;;
21771;SDS011;11047;47.904;8.110;2022-12-18T07:01:46;25.35;;;11.48;;
21771;SDS011;11047;47.904;8.110;2022-12-18T07:04:13;23.42;;;10.32;;
21771;SDS011;11047;47.904;8.110;2022-12-18T07:06:40;27.73;;;12.43;;
21771;SDS011;11047;47.904;8.110;2022-12-18T07:09:06;30.27;;;13.45;;
21771;SDS011;11047;47.904;8.110;2022-12-18T07:11:35;25.15;;;11.43;;
21771;SDS011;11047;47.904;8.110;2022-12-18T07:14:02;25.45;;;11.63;;
21771;SDS011;11047;47.904;8.110;2022-12-18T07:16:29;23.35;;;11.77;;
21771;SDS011;11047;47.904;8.110;2022-12-18T07:18:56;26.23;;;11.80;;
21771;SDS011;11047;47.904;8.110;2022-12-18T07:21:23;22.17;;;10.77;;
21771;SDS011;11047;47.904;8.110;2022-12-18T07:23:50;20.42;;;10.30;;
21771;SDS011;11047;47.904;8.110;2022-12-18T07:26:18;24.02;;;10.95;;
21771;SDS011;11047;47.904;8.110;2022-12-18T07:28:48;21.42;;;10.65;;
21771;SDS011;11047;47.904;8.110;2022-12-18T07:31:16;20.98;;;10.73;;
21771;SDS011;11047;47.904;8.110;2022-12-18T07:33:44;21.50;;;10.40;;
21771;SDS011;11047;47.904;8.110;2022-12-18T07:36:12;23.63;;;11.52;;
21771;SDS011;11047;47.904;8.110;2022-12-18T07:38:39;19.40;;;10.27;;
21771;SDS011;11047;47.904;8.110;2022-12-18T07:41:07;21.95;;;9.73;;
21771;SDS011;11047;47.904;8.110;2022-12-18T07:43:36;21.35;;;10.68;;
21771;SDS011;11047;47.904;8.110;2022-12-18T07:46:05;23.30;;;10.70;;
21771;SDS011;11047;47.904;8.110;2022-12-18T07:48:32;21.30;;;10.65;;
21771;SDS011;11047;47.904;8.110;2022-12-18T07:50:59;24.25;;;10.63;;
21771;SDS011;11047;47.904;8.110;2022-12-18T07:53:27;22.77;;;10.98;;
21771;SDS011;11047;47.904;8.110;2022-12-18T07:55:55;23.25;;;11.93;;
21771;SDS011;11047;47.904;8.110;2022-12-18T07:58:22;23.70;;;11.32;;
21771;SDS011;11047;47.904;8.110;2022-12-18T08:00:49;23.75;;;11.63;;
21771;SDS011;11047;47.904;8.110;2022-12-18T08:03:18;31.83;;;11.13;;
21771;SDS011;11047;47.904;8.110;2022-12-18T08:05:45;29.05;;;12.70;;
21771;SDS011;11047;47.904;8.110;2022-12-18T08:08:12;26.20;;;11.73;;
21771;SDS011;11047;47.904;8.110;2022-12-18T08:10:39;25.50;;;12.95;;
21771;SDS011;11047;47.904;8.110;2022-12-18T08:13:06;21.88;;;10.82;;
21771;SDS011;11047;47.904;8.110;2022-12-18T08:15:33;17.50;;;10.07;;
21771;SDS011;11047;47.904;8.110;2022-12-18T08:18:00;23.38;;;10.20;;
21771;SDS011;11047;47.904;8.110;2022-12-18T08:20:28;21.83;;;10.52;;
21771;SDS011;11047;47.904;8.110;2022-12-18T08:22:55;25.23;;;13.27;;
21771;SDS011;11047;47.904;8.110;2022-12-18T08:25:23;23.13;;;11.20;;
21771;SDS011;11047;47.904;8.110;2022-12-18T08:27:49;28.20;;;11.90;;
21771;SDS011;11047;47.904;8.110;2022-12-18T08:30:16;24.10;;;10.65;;
21771;SDS011;11047;47.904;8.110;2022-12-18T08:32:43;28.35;;;12.35;;
21771;SDS011;11047;47.904;8.110;2022-12-18T08:35:10;30.10;;;12.85;;
21771;SDS011;11047;47.904;8.110;2022-12-18T08:37:39;30.10;;;14.23;;
21771;SDS011;11047;47.904;8.110;2022-12-18T08:40:06;32.67;;;14.60;;
21771;SDS011;11047;47.904;8.110;2022-12-18T08:42:38;30.67;;;13.95;;
21771;SDS011;11047;47.904;8.110;2022-12-18T08:45:22;30.17;;;14.57;;
21771;SDS011;11047;47.904;8.110;2022-12-18T08:47:49;28.85;;;14.07;;
21771;SDS011;11047;47.904;8.110;2022-12-18T08:50:16;33.80;;;15.18;;
21771;SDS011;11047;47.904;8.110;2022-12-18T08:52:45;28.75;;;14.82;;
21771;SDS011;11047;47.904;8.110;2022-12-18T08:55:12;32.08;;;15.10;;
21771;SDS011;11047;47.904;8.110;2022-12-18T08:57:39;29.85;;;14.63;;
21771;SDS011;11047;47.904;8.110;2022-12-18T09:00:06;30.25;;;16.92;;
21771;SDS011;11047;47.904;8.110;2022-12-18T09:02:34;25.42;;;14.45;;
21771;SDS011;11047;47.904;8.110;2022-12-18T09:05:01;26.98;;;15.00;;
21771;SDS011;11047;47.904;8.110;2022-12-18T09:07:28;27.95;;;14.82;;
21771;SDS011;11047;47.904;8.110;2022-12-18T09:09:56;24.92;;;14.63;;
21771;SDS011;11047;47.904;8.110;2022-12-18T09:12:23;24.13;;;12.25;;
21771;SDS011;11047;47.904;8.110;2022-12-18T09:14:50;23.20;;;13.75;;
21771;SDS011;11047;47.904;8.110;2022-12-18T09:17:17;25.98;;;14.40;;
21771;SDS011;11047;47.904;8.110;2022-12-18T09:19:44;25.88;;;16.15;;
21771;SDS011;11047;47.904;8.110;2022-12-18T09:22:11;24.13;;;15.23;;
21771;SDS011;11047;47.904;8.110;2022-12-18T09:24:38;24.17;;;15.32;;
21771;SDS011;11047;47.904;8.110;2022-12-18T09:27:06;23.65;;;14.95;;
21771;SDS011;11047;47.904;8.110;2022-12-18T09:29:33;26.80;;;18.48;;
21771;SDS011;11047;47.904;8.110;2022-12-18T09:32:00;25.02;;;17.00;;
21771;SDS011;11047;47.904;8.110;2022-12-18T09:34:27;26.55;;;17.55;;
21771;SDS011;11047;47.904;8.110;2022-12-18T09:36:54;28.15;;;17.30;;
21771;SDS011;11047;47.904;8.110;2022-12-18T09:39:21;27.25;;;18.40;;
21771;SDS011;11047;47.904;8.110;2022-12-18T09:41:50;23.83;;;17.17;;
21771;SDS011;11047;47.904;8.110;2022-12-18T09:44:22;26.35;;;17.17;;
21771;SDS011;11047;47.904;8.110;2022-12-18T09:46:52;25.95;;;18.35;;
21771;SDS011;11047;47.904;8.110;2022-12-18T09:49:25;26.73;;;17.92;;
21771;SDS011;11047;47.904;8.110;2022-12-18T09:51:56;25.20;;;18.42;;
21771;SDS011;11047;47.904;8.110;2022-12-18T09:54:30;24.40;;;17.58;;
21771;SDS011;11047;47.904;8.110;2022-12-18T09:57:01;25.17;;;18.80;;
21771;SDS011;11047;47.904;8.110;2022-12-18T09:59:32;25.23;;;18.63;;
21771;SDS011;11047;47.904;8.110;2022-12-18T10:02:07;25.48;;;19.05;;
21771;SDS011;11047;47.904;8.110;2022-12-18T10:04:43;24.23;;;17.73;;
21771;SDS011;11047;47.904;8.110;2022-12-18T10:07:14;24.33;;;17.88;;
21771;SDS011;11047;47.904;8.110;2022-12-18T10:09:47;24.80;;;17.73;;
21771;SDS011;11047;47.904;8.110;2022-12-18T10:12:21;22.63;;;17.58;;
21771;SDS011;11047;47.904;8.110;2022-12-18T10:15:00;22.10;;;17.15;;
21771;SDS011;11047;47.904;8.110;2022-12-18T10:17:33;20.08;;;16.40;;
21771;SDS011;11047;47.904;8.110;2022-12-18T10:20:10;22.40;;;17.17;;
21771;SDS011;11047;47.904;8.110;2022-12-18T10:22:44;22.98;;;17.95;;
21771;SDS011;11047;47.904;8.110;2022-12-18T10:25:19;24.67;;;17.83;;
21771;SDS011;11047;47.904;8.110;2022-12-18T10:27:51;21.40;;;17.30;;
21771;SDS011;11047;47.904;8.110;2022-12-18T10:30:22;21.73;;;17.38;;
21771;SDS011;11047;47.904;8.110;2022-12-18T10:32:50;21.98;;;17.65;;
21771;SDS011;11047;47.904;8.110;2022-12-18T10:35:18;24.25;;;17.77;;
21771;SDS011;11047;47.904;8.110;2022-12-18T10:37:59;24.58;;;18.23;;
21771;SDS011;11047;47.904;8.110;2022-12-18T10:40:31;21.85;;;17.45;;
21771;SDS011;11047;47.904;8.110;2022-12-18T10:43:05;23.13;;;17.65;;
21771;SDS011;11047;47.904;8.110;2022-12-18T10:45:38;23.35;;;17.42;;
21771;SDS011;11047;47.904;8.110;2022-12-18T10:48:16;23.90;;;17.90;;
21771;SDS011;11047;47.904;8.110;2022-12-18T10:50:46;24.80;;;18.08;;
21771;SDS011;11047;47.904;8.110;2022-12-18T10:53:16;20.92;;;16.33;;
21771;SDS011;11047;47.904;8.110;2022-12-18T10:55:46;22.27;;;16.80;;
21771;SDS011;11047;47.904;8.110;2022-12-18T10:58:16;22.38;;;16.55;;
21771;SDS011;11047;47.904;8.110;2022-12-18T11:01:02;24.95;;;18.00;;
21771;SDS011;11047;47.904;8.110;2022-12-18T11:03:33;23.88;;;16.95;;
21771;SDS011;11047;47.904;8.110;2022-12-18T11:06:02;22.77;;;15.25;;
21771;SDS011;11047;47.904;8.110;2022-12-18T11:08:31;20.75;;;15.43;;
21771;SDS011;11047;47.904;8.110;2022-12-18T11:10:58;23.73;;;16.25;;
21771;SDS011;11047;47.904;8.110;2022-12-18T11:13:26;23.55;;;15.88;;
21771;SDS011;11047;47.904;8.110;2022-12-18T11:15:54;24.35;;;16.27;;
21771;SDS011;11047;47.904;8.110;2022-12-18T11:18:25;23.73;;;15.20;;
21771;SDS011;11047;47.904;8.110;2022-12-18T11:20:55;25.40;;;16.40;;
21771;SDS011;11047;47.904;8.110;2022-12-18T11:23:23;26.00;;;17.23;;
21771;SDS011;11047;47.904;8.110;2022-12-18T11:25:52;24.85;;;15.73;;
21771;SDS011;11047;47.904;8.110;2022-12-18T11:28:34;26.92;;;16.33;;
21771;SDS011;11047;47.904;8.110;2022-12-18T11:36:18;26.90;;;14.63;;
21771;SDS011;11047;47.904;8.110;2022-12-18T11:38:47;24.83;;;15.20;;
21771;SDS011;11047;47.904;8.110;2022-12-18T11:41:24;25.30;;;15.00;;
21771;SDS011;11047;47.904;8.110;2022-12-18T11:44:11;28.60;;;16.05;;
21771;SDS011;11047;47.904;8.110;2022-12-18T11:46:45;26.52;;;15.90;;
21771;SDS011;11047;47.904;8.110;2022-12-18T11:49:17;25.65;;;15.38;;
21771;SDS011;11047;47.904;8.110;2022-12-18T11:54:17;24.38;;;14.30;;
21771;SDS011;11047;47.904;8.110;2022-12-18T11:56:46;23.85;;;15.05;;
21771;SDS011;11047;47.904;8.110;2022-12-18T11:59:16;26.55;;;15.88;;
21771;SDS011;11047;47.904;8.110;2022-12-18T12:01:54;26.80;;;15.32;;
21771;SDS011;11047;47.904;8.110;2022-12-18T12:07:29;27.58;;;16.17;;
21771;SDS011;11047;47.904;8.110;2022-12-18T12:10:08;27.08;;;14.70;;
21771;SDS011;11047;47.904;8.110;2022-12-18T12:12:49;26.23;;;15.32;;
21771;SDS011;11047;47.904;8.110;2022-12-18T12:15:28;26.88;;;15.82;;
21771;SDS011;11047;47.904;8.110;2022-12-18T12:18:07;26.60;;;15.10;;
21771;SDS011;11047;47.904;8.110;2022-12-18T12:20:47;25.60;;;15.23;;
21771;SDS011;11047;47.904;8.110;2022-12-18T12:23:22;24.55;;;15.15;;
21771;SDS011;11047;47.904;8.110;2022-12-18T12:25:59;27.13;;;14.95;;
21771;SDS011;11047;47.904;8.110;2022-12-18T12:28:42;26.60;;;15.60;;
21771;SDS011;11047;47.904;8.110;2022-12-18T12:31:32;27.25;;;15.55;;
21771;SDS011;11047;47.904;8.110;2022-12-18T12:34:09;26.15;;;15.52;;
21771;SDS011;11047;47.904;8.110;2022-12-18T12:36:47;27.52;;;16.40;;
21771;SDS011;11047;47.904;8.110;2022-12-18T12:39:35;25.00;;;14.48;;
21771;SDS011;11047;47.904;8.110;2022-12-18T12:42:05;28.52;;;15.25;;
21771;SDS011;11047;47.904;8.110;2022-12-18T12:44:56;35.65;;;18.10;;
21771;SDS011;11047;47.904;8.110;2022-12-18T12:47:30;28.42;;;16.63;;
21771;SDS011;11047;47.904;8.110;2022-12-18T12:50:02;29.48;;;16.88;;
21771;SDS011;11047;47.904;8.110;2022-12-18T12:52:39;27.88;;;15.95;;
21771;SDS011;11047;47.904;8.110;2022-12-18T12:55:12;31.13;;;15.57;;
21771;SDS011;11047;47.904;8.110;2022-12-18T12:57:43;28.13;;;16.40;;
21771;SDS011;11047;47.904;8.110;2022-12-18T13:00:15;29.13;;;17.00;;
21771;SDS011;11047;47.904;8.110;2022-12-18T13:02:45;27.80;;;16.13;;
21771;SDS011;11047;47.904;8.110;2022-12-18T13:05:18;31.20;;;16.13;;
21771;SDS011;11047;47.904;8.110;2022-12-18T13:07:51;27.88;;;16.02;;
21771;SDS011;11047;47.904;8.110;2022-12-18T13:10:26;28.45;;;14.93;;
21771;SDS011;11047;47.904;8.110;2022-12-18T13:12:58;31.83;;;16.85;;
21771;SDS011;11047;47.904;8.110;2022-12-18T13:15:28;27.30;;;15.45;;
21771;SDS011;11047;47.904;8.110;2022-12-18T13:18:04;29.65;;;15.82;;
21771;SDS011;11047;47.904;8.110;2022-12-18T13:20:37;25.27;;;14.68;;
21771;SDS011;11047;47.904;8.110;2022-12-18T13:23:23;28.83;;;15.90;;
21771;SDS011;11047;47.904;8.110;2022-12-18T13:25:54;27.00;;;14.95;;
21771;SDS011;11047;47.904;8.110;2022-12-18T13:28:21;26.55;;;15.27;;
21771;SDS011;11047;47.904;8.110;2022-12-18T13:30:55;26.45;;;15.13;;
21771;SDS011;11047;47.904;8.110;2022-12-18T13:36:32;27.48;;;15.80;;
21771;SDS011;11047;47.904;8.110;2022-12-18T13:39:22;26.98;;;14.93;;
21771;SDS011;11047;47.904;8.110;2022-12-18T13:41:52;26.63;;;15.80;;
21771;SDS011;11047;47.904;8.110;2022-12-18T13:44:24;28.23;;;15.63;;
21771;SDS011;11047;47.904;8.110;2022-12-18T13:46:56;26.67;;;15.35;;
21771;SDS011;11047;47.904;8.110;2022-12-18T13:49:25;29.60;;;15.85;;
21771;SDS011;11047;47.904;8.110;2022-12-18T13:51:56;29.42;;;15.00;;
21771;SDS011;11047;47.904;8.110;2022-12-18T13:54:26;24.88;;;14.07;;
21771;SDS011;11047;47.904;8.110;2022-12-18T13:56:59;28.02;;;16.17;;
21771;SDS011;11047;47.904;8.110;2022-12-18T13:59:26;29.92;;;16.60;;
21771;SDS011;11047;47.904;8.110;2022-12-18T14:02:00;26.88;;;15.27;;
21771;SDS011;11047;47.904;8.110;2022-12-18T14:04:38;26.63;;;15.10;;
21771;SDS011;11047;47.904;8.110;2022-12-18T14:07:05;24.20;;;14.10;;
21771;SDS011;11047;47.904;8.110;2022-12-18T14:09:43;26.52;;;14.45;;
21771;SDS011;11047;47.904;8.110;2022-12-18T14:12:14;29.17;;;14.98;;
21771;SDS011;11047;47.904;8.110;2022-12-18T14:15:02;23.60;;;13.70;;
21771;SDS011;11047;47.904;8.110;2022-12-18T14:17:30;27.70;;;14.75;;
21771;SDS011;11047;47.904;8.110;2022-12-18T14:19:58;27.27;;;15.02;;
21771;SDS011;11047;47.904;8.110;2022-12-18T14:22:26;27.70;;;15.48;;
21771;SDS011;11047;47.904;8.110;2022-12-18T14:27:44;32.08;;;15.98;;
21771;SDS011;11047;47.904;8.110;2022-12-18T14:30:23;25.95;;;14.32;;
21771;SDS011;11047;47.904;8.110;2022-12-18T14:33:00;26.65;;;13.95;;
21771;SDS011;11047;47.904;8.110;2022-12-18T14:35:28;27.23;;;15.05;;
21771;SDS011;11047;47.904;8.110;2022-12-18T14:38:08;24.90;;;14.70;;
21771;SDS011;11047;47.904;8.110;2022-12-18T14:40:46;28.10;;;15.35;;
21771;SDS011;11047;47.904;8.110;2022-12-18T14:43:17;25.02;;;14.32;;
21771;SDS011;11047;47.904;8.110;2022-12-18T14:45:44;26.27;;;14.60;;
21771;SDS011;11047;47.904;8.110;2022-12-18T14:48:13;26.17;;;14.55;;
21771;SDS011;11047;47.904;8.110;2022-12-18T14:50:43;28.90;;;15.13;;
21771;SDS011;11047;47.904;8.110;2022-12-18T14:53:18;25.83;;;14.10;;
21771;SDS011;11047;47.904;8.110;2022-12-18T14:55:51;27.85;;;14.73;;
21771;SDS011;11047;47.904;8.110;2022-12-18T14:58:18;27.80;;;15.43;;
21771;SDS011;11047;47.904;8.110;2022-12-18T15:00:45;28.92;;;15.60;;
21771;SDS011;11047;47.904;8.110;2022-12-18T15:03:12;28.33;;;16.15;;
21771;SDS011;11047;47.904;8.110;2022-12-18T15:05:45;27.90;;;15.20;;